Time;durP1;ratioP1;P1;durP2;ratioP2;P2;SDS_P1;SDS_P2;PMS_P1;PMS_P2;Temp;Humidity;BMP_temperature;BMP_pressure;BME280_temperature;BME280_humidity;BME280_pressure;Samples;Min_cycle;Max_cycle;Signal;HPM_P1;HPM_P2
2023/07/12 00:01:09;;;;;;;3.53;1.83;;;;;;;23.91;53.01;100764.84;5055463;28;20059;-74
2023/07/12 00:03:34;;;;;;;4.10;1.65;;;;;;;23.85;52.47;100758.53;5068845;28;20078;-74
2023/07/12 00:06:00;;;;;;;3.17;1.60;;;;;;;23.85;52.93;100754.84;5068326;28;20028;-74
2023/07/12 00:08:31;;;;;;;2.80;1.75;;;;;;;23.85;53.21;100754.84;5073556;28;20037;-74
2023/07/12 00:10:58;;;;;;;2.13;1.52;;;;;;;23.74;52.97;100754.47;5071566;28;20028;-74
2023/07/12 00:13:24;;;;;;;3.17;1.70;;;;;;;23.81;53.08;100762.41;5073687;28;20024;-74
2023/07/12 00:15:51;;;;;;;3.58;1.50;;;;;;;23.78;53.22;100766.78;5073025;28;20052;-74
2023/07/12 00:18:19;;;;;;;3.47;1.40;;;;;;;23.80;53.08;100786.25;5071554;28;20039;-73
2023/07/12 00:20:46;;;;;;;4.18;1.90;;;;;;;23.75;53.66;100804.28;5073367;28;20475;-74
2023/07/12 00:23:14;;;;;;;2.28;1.83;;;;;;;23.74;53.37;100803.47;5063771;28;20421;-72
2023/07/12 00:25:39;;;;;;;4.07;2.03;;;;;;;23.72;53.76;100807.81;5072187;28;20537;-74
2023/07/12 00:28:19;;;;;;;3.15;2.00;;;;;;;23.75;53.92;100802.28;5072265;28;20033;-73
2023/07/12 00:30:44;;;;;;;2.80;1.83;;;;;;;23.67;54.01;100810.84;5073330;28;20028;-74
2023/07/12 00:33:09;;;;;;;3.58;2.00;;;;;;;23.70;53.70;100821.50;5071589;28;20082;-73
2023/07/12 00:35:39;;;;;;;4.32;2.30;;;;;;;23.65;54.07;100813.97;5072498;28;20442;-73
2023/07/12 00:38:05;;;;;;;3.17;2.30;;;;;;;23.56;54.36;100821.72;5073223;28;20040;-74
2023/07/12 00:40:46;;;;;;;4.10;2.33;;;;;;;23.43;54.90;100829.28;5061834;28;20541;-74
2023/07/12 00:43:21;;;;;;;3.83;2.43;;;;;;;23.47;54.61;100838.75;5073096;28;20029;-74
2023/07/12 00:45:50;;;;;;;4.88;2.28;;;;;;;23.46;54.39;100831.44;5064276;28;20605;-73
2023/07/12 00:48:16;;;;;;;3.03;2.17;;;;;;;23.37;54.19;100835.47;5057112;28;20029;-73
2023/07/12 00:50:42;;;;;;;5.05;2.50;;;;;;;23.44;53.81;100825.28;5072282;28;20029;-74
2023/07/12 00:53:12;;;;;;;5.75;2.38;;;;;;;23.48;53.75;100839.59;5071558;28;20376;-74
2023/07/12 00:56:10;;;;;;;4.65;2.40;;;;;;;23.50;53.33;100848.56;5072855;28;20532;-73
2023/07/12 00:58:49;;;;;;;4.68;2.47;;;;;;;23.41;53.32;100836.44;5059903;28;20102;-73
2023/07/12 01:01:16;;;;;;;5.05;2.67;;;;;;;23.34;53.45;100848.28;5072174;28;20032;-74
2023/07/12 01:03:44;;;;;;;4.15;2.25;;;;;;;23.41;53.57;100874.09;5071357;28;20024;-74
2023/07/12 01:06:12;;;;;;;3.85;2.50;;;;;;;23.39;53.45;100862.28;5067815;28;20039;-74
2023/07/12 01:08:42;;;;;;;6.10;2.85;;;;;;;23.31;53.67;100865.16;5070865;28;20217;-73
2023/07/12 01:11:11;;;;;;;3.05;2.13;;;;;;;23.32;53.35;100880.97;5072335;28;20024;-74
2023/07/12 01:13:40;;;;;;;6.13;2.95;;;;;;;23.14;53.69;100872.53;5072186;28;20391;-73
2023/07/12 01:16:06;;;;;;;4.55;2.50;;;;;;;23.20;53.52;100808.88;5070979;28;20081;-73
2023/07/12 01:18:31;;;;;;;6.45;2.50;;;;;;;23.26;53.96;100827.38;5072347;28;20024;-72
2023/07/12 01:21:36;;;;;;;6.43;2.90;;;;;;;23.19;53.77;100831.91;5071002;28;20029;-72
2023/07/12 01:24:01;;;;;;;7.15;2.97;;;;;;;23.10;53.92;100814.09;5049834;28;20485;-74
2023/07/12 01:26:33;;;;;;;5.03;2.97;;;;;;;23.11;54.24;100832.72;5052875;28;20184;-73
2023/07/12 01:29:00;;;;;;;5.68;2.83;;;;;;;23.11;54.43;100835.56;5051096;28;20032;-74
2023/07/12 01:31:27;;;;;;;7.25;3.20;;;;;;;23.08;55.03;100847.59;5051657;28;20029;-73
2023/07/12 01:33:53;;;;;;;10.40;3.10;;;;;;;23.10;55.91;100828.25;5052259;28;20044;-73
2023/07/12 01:36:20;;;;;;;8.85;3.30;;;;;;;22.96;56.45;100806.66;5055443;28;20090;-73
2023/07/12 01:38:46;;;;;;;4.25;2.83;;;;;;;23.03;56.69;100826.78;5071846;28;20047;-73
2023/07/12 01:41:12;;;;;;;5.78;3.22;;;;;;;23.00;56.49;100838.78;5062653;28;20063;-73
2023/07/12 01:43:37;;;;;;;5.18;2.92;;;;;;;22.94;57.10;100837.28;5070933;28;20487;-74
2023/07/12 01:46:03;;;;;;;6.63;2.72;;;;;;;22.79;56.75;100804.69;5071705;28;20456;-74
2023/07/12 01:48:28;;;;;;;5.43;2.65;;;;;;;22.87;56.55;100791.69;5073251;28;20060;-74
2023/07/12 01:50:54;;;;;;;6.63;2.50;;;;;;;22.86;56.70;100783.50;5068021;28;20025;-74
2023/07/12 01:53:20;;;;;;;4.07;1.90;;;;;;;22.93;56.63;100786.69;5070535;28;20036;-74
2023/07/12 01:55:45;;;;;;;4.93;2.47;;;;;;;22.82;56.66;100803.16;5071925;28;20029;-74
2023/07/12 01:58:11;;;;;;;5.13;2.60;;;;;;;22.83;56.41;100803.97;5063888;28;20086;-73
2023/07/12 02:00:37;;;;;;;6.72;3.10;;;;;;;22.52;57.41;100805.91;5070937;28;20653;-73
2023/07/12 02:03:03;;;;;;;7.13;2.78;;;;;;;22.61;57.66;100794.56;5051879;28;20492;-74
2023/07/12 02:05:28;;;;;;;8.32;3.30;;;;;;;22.55;57.56;100784.56;5050636;28;20032;-74
2023/07/12 02:07:56;;;;;;;4.05;3.05;;;;;;;22.47;58.06;100803.22;5051794;28;20350;-73
2023/07/12 02:10:23;;;;;;;5.32;2.95;;;;;;;22.38;58.54;100770.47;5053412;28;20060;-74
2023/07/12 02:12:49;;;;;;;5.57;2.95;;;;;;;22.46;58.41;100739.34;5070498;28;20025;-73
2023/07/12 02:15:15;;;;;;;5.55;2.60;;;;;;;22.47;58.00;100783.41;5064269;28;20040;-73
2023/07/12 02:17:40;;;;;;;5.00;3.20;;;;;;;22.36;58.89;100824.56;5070928;28;20081;-73
2023/07/12 02:20:08;;;;;;;5.47;2.53;;;;;;;22.49;58.50;100842.50;5070990;28;20028;-73
2023/07/12 02:22:35;;;;;;;5.53;2.55;;;;;;;22.49;58.24;100837.66;5070432;28;20024;-73
2023/07/12 02:25:00;;;;;;;4.32;2.58;;;;;;;22.58;57.76;100837.66;5068046;28;20376;-73
2023/07/12 02:27:26;;;;;;;4.72;3.00;;;;;;;22.37;58.60;100840.34;5068080;28;20032;-73
2023/07/12 02:29:52;;;;;;;6.22;2.80;;;;;;;22.48;58.19;100824.69;5071266;28;20025;-73
2023/07/12 02:32:18;;;;;;;4.38;2.78;;;;;;;22.50;57.95;100791.25;5063020;28;20082;-73
2023/07/12 02:34:43;;;;;;;5.00;2.53;;;;;;;22.47;57.80;100805.22;5055988;28;20531;-72
2023/07/12 02:37:08;;;;;;;5.93;2.78;;;;;;;22.38;58.32;100805.22;5077721;28;20028;-73
2023/07/12 02:39:34;;;;;;;4.47;2.70;;;;;;;22.22;58.24;100813.41;5076132;28;20452;-72
2023/07/12 02:41:59;;;;;;;5.68;2.60;;;;;;;22.25;58.18;100804.25;5069428;28;20115;-73
2023/07/12 02:44:25;;;;;;;6.35;2.88;;;;;;;22.17;58.62;100822.06;5065439;28;20025;-73
2023/07/12 02:46:50;;;;;;;6.60;2.40;;;;;;;22.25;58.56;100820.38;5049974;28;20496;-73
2023/07/12 02:49:15;;;;;;;5.40;2.40;;;;;;;22.19;58.59;100813.22;5050971;28;20032;-72
2023/07/12 02:51:41;;;;;;;4.43;2.47;;;;;;;22.11;58.85;100809.19;5049664;28;20111;-73
2023/07/12 02:54:06;;;;;;;3.97;2.50;;;;;;;22.09;58.83;100816.38;5052245;28;20028;-73
2023/07/12 02:56:31;;;;;;;3.50;2.17;;;;;;;22.28;58.36;100819.69;5067302;28;20138;-73
2023/07/12 02:58:57;;;;;;;5.43;2.33;;;;;;;22.22;58.16;100816.22;5068879;28;20048;-73
2023/07/12 03:01:22;;;;;;;4.70;2.20;;;;;;;22.11;58.47;100822.50;5069064;28;20035;-73
2023/07/12 03:03:48;;;;;;;4.43;1.95;;;;;;;22.20;58.10;100824.19;5058033;28;20071;-74
2023/07/12 03:06:13;;;;;;;4.40;2.05;;;;;;;22.13;58.66;100820.19;5051173;28;20033;-73
2023/07/12 03:08:39;;;;;;;3.65;2.20;;;;;;;22.14;58.39;100834.00;5049765;28;20039;-73
2023/07/12 03:11:06;;;;;;;5.57;2.40;;;;;;;21.92;59.05;100837.78;5053653;28;20024;-73
2023/07/12 03:13:32;;;;;;;5.55;2.03;;;;;;;22.02;58.87;100837.47;5049489;28;20029;-73
2023/07/12 03:15:58;;;;;;;3.00;2.10;;;;;;;21.81;59.36;100840.09;5049820;28;20052;-73
2023/07/12 03:18:24;;;;;;;3.97;1.90;;;;;;;21.97;58.58;100839.63;5055023;28;20040;-72
2023/07/12 03:20:49;;;;;;;4.25;2.33;;;;;;;21.69;59.70;100845.56;5069976;28;20029;-73
2023/07/12 03:23:16;;;;;;;5.13;2.03;;;;;;;21.85;59.34;100831.81;5067893;28;20031;-73
2023/07/12 03:25:46;;;;;;;3.67;2.00;;;;;;;21.89;58.90;100837.59;5050439;28;20025;-72
2023/07/12 03:28:11;;;;;;;4.13;2.30;;;;;;;21.83;59.22;100839.75;5051410;28;20029;-73
2023/07/12 03:30:36;;;;;;;5.40;2.28;;;;;;;21.73;59.38;100843.75;5066379;28;20772;-73
2023/07/12 03:33:02;;;;;;;2.65;1.88;;;;;;;21.83;59.04;100845.41;5071344;28;20062;-72
2023/07/12 03:35:27;;;;;;;4.75;2.33;;;;;;;21.79;59.28;100850.88;5072191;28;20167;-73
2023/07/12 03:37:53;;;;;;;4.10;1.95;;;;;;;21.85;59.07;100860.06;5074309;28;20036;-73
2023/07/12 03:40:18;;;;;;;4.22;2.10;;;;;;;21.70;59.50;100861.34;5073482;28;20024;-73
2023/07/12 03:42:43;;;;;;;3.95;1.98;;;;;;;21.80;59.27;100857.38;5070439;28;20040;-73
2023/07/12 03:45:09;;;;;;;3.55;1.92;;;;;;;21.80;58.71;100863.84;5069822;28;20024;-72
2023/07/12 03:47:34;;;;;;;4.50;2.15;;;;;;;21.80;59.03;100863.00;5052874;28;20539;-73
2023/07/12 03:50:00;;;;;;;4.57;2.10;;;;;;;21.79;58.80;100861.38;5053581;28;20109;-73
2023/07/12 03:52:25;;;;;;;3.88;2.17;;;;;;;21.60;58.95;100861.63;5058567;28;20031;-73
2023/07/12 03:54:51;;;;;;;4.93;2.20;;;;;;;21.68;59.19;100862.81;5054129;28;20025;-73
2023/07/12 03:57:16;;;;;;;4.85;2.42;;;;;;;21.62;59.23;100870.63;5053527;28;20029;-73
2023/07/12 03:59:41;;;;;;;4.15;2.53;;;;;;;21.51;59.08;100872.91;5073106;28;20032;-73
2023/07/12 04:02:07;;;;;;;6.20;2.75;;;;;;;21.40;59.43;100882.00;5067546;28;20032;-73
2023/07/12 04:04:32;;;;;;;4.22;2.10;;;;;;;21.61;59.09;100877.41;5073248;28;20021;-73
2023/07/12 04:06:57;;;;;;;7.68;2.72;;;;;;;21.62;59.01;100883.91;5073433;28;20033;-72
2023/07/12 04:09:22;;;;;;;3.35;2.10;;;;;;;21.70;58.82;100871.81;5072370;28;20084;-73
2023/07/12 04:11:48;;;;;;;4.10;2.60;;;;;;;21.65;58.98;100872.78;5072914;28;20032;-73
2023/07/12 04:14:13;;;;;;;6.57;2.78;;;;;;;21.61;58.75;100876.59;5064038;28;20037;-73
2023/07/12 04:16:39;;;;;;;6.18;2.60;;;;;;;21.66;58.53;100879.28;5073468;28;20048;-73
2023/07/12 04:19:04;;;;;;;4.57;2.03;;;;;;;21.67;58.40;100890.25;5067866;28;20054;-73
2023/07/12 04:21:29;;;;;;;7.93;2.80;;;;;;;21.48;58.50;100878.38;5073430;28;20031;-73
2023/07/12 04:23:54;;;;;;;5.35;2.22;;;;;;;21.58;58.62;100877.25;5072635;28;20063;-73
2023/07/12 04:26:21;;;;;;;5.60;2.45;;;;;;;21.45;58.75;100893.97;5071685;28;20097;-73
2023/07/12 04:28:50;;;;;;;4.18;2.35;;;;;;;21.46;58.51;100892.00;5072937;28;20039;-73
2023/07/12 04:31:17;;;;;;;6.65;2.60;;;;;;;21.52;58.89;100877.38;5071566;28;20099;-74
2023/07/12 04:33:44;;;;;;;4.82;2.53;;;;;;;21.60;58.26;100884.22;5073402;28;20024;-73
2023/07/12 04:36:11;;;;;;;5.82;2.00;;;;;;;21.57;58.46;100884.88;5067913;28;20029;-73
2023/07/12 04:38:37;;;;;;;8.38;2.83;;;;;;;21.35;58.94;100893.44;5068683;28;20039;-73
2023/07/12 04:41:03;;;;;;;6.03;2.60;;;;;;;21.44;58.85;100894.31;5072984;28;20028;-73
2023/07/12 04:43:29;;;;;;;4.43;2.50;;;;;;;21.35;59.23;100897.09;5071469;28;20548;-73
2023/07/12 04:45:55;;;;;;;5.47;2.30;;;;;;;21.32;59.26;100887.28;5071651;28;20028;-73
2023/07/12 04:48:21;;;;;;;9.30;2.15;;;;;;;21.43;58.84;100887.00;5071241;28;20383;-73
2023/07/12 04:50:51;;;;;;;3.42;2.03;;;;;;;21.51;58.63;100883.38;5053005;28;20025;-74
2023/07/12 04:53:17;;;;;;;6.90;2.42;;;;;;;21.21;59.04;100890.66;5051729;28;20099;-73
2023/07/12 04:55:42;;;;;;;5.90;2.05;;;;;;;21.15;59.26;100887.16;5056724;28;20052;-73
2023/07/12 04:58:07;;;;;;;5.57;2.35;;;;;;;21.17;59.32;100889.66;5072316;28;20105;-73
2023/07/12 05:00:33;;;;;;;5.22;1.95;;;;;;;21.30;58.94;100888.75;5074416;28;20028;-73
2023/07/12 05:02:59;;;;;;;6.78;2.20;;;;;;;21.31;59.01;100896.88;5075077;28;20115;-73
2023/07/12 05:05:24;;;;;;;4.72;2.22;;;;;;;21.29;59.24;100893.53;5070553;28;20025;-73
2023/07/12 05:07:50;;;;;;;6.85;2.33;;;;;;;21.21;59.07;100891.50;5071463;28;20047;-73
2023/07/12 05:10:17;;;;;;;5.65;2.50;;;;;;;21.15;58.83;100898.44;5072032;28;20071;-74
2023/07/12 05:12:42;;;;;;;5.80;1.92;;;;;;;21.29;59.22;100907.66;5072682;28;20029;-73
2023/07/12 05:15:10;;;;;;;9.90;1.90;;;;;;;21.24;59.03;100910.63;5071668;28;20085;-73
2023/07/12 05:17:35;;;;;;;8.07;2.50;;;;;;;21.27;59.00;100906.31;5070643;28;20032;-75
2023/07/12 05:20:06;;;;;;;5.28;2.00;;;;;;;21.40;59.04;100907.41;5066537;28;20028;-73
2023/07/12 05:22:32;;;;;;;6.32;2.45;;;;;;;21.26;59.25;100907.44;5057432;28;20029;-73
2023/07/12 05:24:58;;;;;;;4.90;1.75;;;;;;;21.36;58.80;100918.50;5054824;28;20496;-73
2023/07/12 05:27:24;;;;;;;5.68;2.10;;;;;;;21.23;59.32;100919.41;5061257;28;20029;-73
2023/07/12 05:29:49;;;;;;;5.10;1.98;;;;;;;21.28;59.28;100931.41;5071475;28;20041;-73
2023/07/12 05:32:14;;;;;;;5.22;2.40;;;;;;;21.20;59.45;100929.34;5072157;28;20078;-73
2023/07/12 05:34:41;;;;;;;7.03;2.30;;;;;;;21.22;59.23;100915.75;5070040;28;20515;-70
2023/07/12 05:37:07;;;;;;;4.28;1.95;;;;;;;21.36;58.90;100917.69;5071250;28;20021;-70
2023/07/12 05:39:32;;;;;;;6.85;2.05;;;;;;;21.28;59.20;100917.28;5056855;28;20044;-71
2023/07/12 05:41:57;;;;;;;5.22;2.03;;;;;;;21.39;59.05;100920.69;5071368;28;20037;-73
2023/07/12 05:44:23;;;;;;;5.82;2.05;;;;;;;21.38;59.16;100918.19;5071433;28;20028;-71
2023/07/12 05:46:48;;;;;;;10.73;2.45;;;;;;;21.48;59.01;100929.19;5056185;28;20496;-70
2023/07/12 05:49:13;;;;;;;7.85;2.47;;;;;;;21.45;58.87;100925.03;5050745;28;20029;-70
2023/07/12 05:51:39;;;;;;;5.25;2.08;;;;;;;21.54;58.50;100933.56;5056592;28;20420;-71
2023/07/12 05:54:04;;;;;;;8.65;2.47;;;;;;;21.53;58.43;100926.22;5071576;28;20476;-71
2023/07/12 05:56:29;;;;;;;7.70;2.15;;;;;;;21.61;58.28;100919.78;5068366;28;20028;-72
2023/07/12 05:58:55;;;;;;;5.60;2.28;;;;;;;21.60;58.36;100926.59;5050516;28;20036;-68
2023/07/12 06:01:21;;;;;;;6.22;2.40;;;;;;;21.56;58.50;100942.53;5059244;28;20039;-71
2023/07/12 06:03:46;;;;;;;6.57;2.08;;;;;;;21.64;58.79;100941.72;5061980;28;20513;-74
2023/07/12 06:06:12;;;;;;;6.05;1.98;;;;;;;21.71;58.17;100944.94;5055623;28;20021;-72
2023/07/12 06:08:37;;;;;;;4.50;2.10;;;;;;;21.74;58.32;100941.47;5056487;28;20040;-72
2023/07/12 06:11:03;;;;;;;4.78;2.25;;;;;;;21.64;58.20;100947.38;5069934;28;20043;-71
2023/07/12 06:13:29;;;;;;;4.32;2.10;;;;;;;21.64;58.03;100938.91;5069500;28;20078;-73
2023/07/12 06:15:54;;;;;;;6.85;2.63;;;;;;;21.56;58.28;100951.00;5081525;28;20539;-72
2023/07/12 06:18:20;;;;;;;4.80;2.20;;;;;;;21.65;58.25;100949.03;5090283;28;20035;-77
2023/07/12 06:20:45;;;;;;;5.78;2.25;;;;;;;21.78;58.20;100953.78;5078962;28;20361;-75
2023/07/12 06:23:11;;;;;;;9.30;2.75;;;;;;;21.59;58.27;100947.53;5066651;28;20037;-74
2023/07/12 06:25:37;;;;;;;8.93;2.58;;;;;;;21.69;58.01;100943.56;5069899;28;20111;-74
2023/07/12 06:28:03;;;;;;;7.55;2.63;;;;;;;21.71;58.57;100949.75;5065045;28;20040;-75
2023/07/12 06:30:28;;;;;;;5.85;2.40;;;;;;;21.68;58.02;100953.22;5064640;28;20038;-74
2023/07/12 06:32:54;;;;;;;5.82;2.40;;;;;;;21.66;58.26;100959.19;5053357;28;20104;-73
2023/07/12 06:35:19;;;;;;;6.93;2.60;;;;;;;21.73;58.13;100961.53;5057922;28;20041;-73
2023/07/12 06:37:45;;;;;;;6.25;2.55;;;;;;;21.73;57.85;100967.19;5047168;28;20440;-73
2023/07/12 06:40:10;;;;;;;8.70;2.47;;;;;;;21.87;57.72;100984.06;5048244;28;20464;-74
2023/07/12 06:42:36;;;;;;;7.22;2.40;;;;;;;21.81;57.68;100984.19;5067056;28;20123;-69
2023/07/12 06:45:02;;;;;;;7.80;2.78;;;;;;;21.76;57.58;100983.50;5064939;28;20518;-69
2023/07/12 06:47:28;;;;;;;9.30;2.75;;;;;;;21.67;57.55;100983.47;5067826;28;20058;-70
2023/07/12 06:49:53;;;;;;;6.65;2.42;;;;;;;21.48;58.36;100985.69;5054331;28;20033;-68
2023/07/12 06:52:19;;;;;;;9.95;2.60;;;;;;;21.56;58.17;100994.19;5048883;28;20025;-72
2023/07/12 06:54:44;;;;;;;5.97;2.30;;;;;;;21.56;57.63;100988.53;5065757;28;20472;-72
2023/07/12 06:57:10;;;;;;;10.57;2.70;;;;;;;21.41;58.33;100991.78;5066928;28;20038;-73
2023/07/12 06:59:35;;;;;;;8.40;2.80;;;;;;;21.51;58.12;100991.53;5054932;28;20017;-71
2023/07/12 07:02:00;;;;;;;7.82;2.63;;;;;;;21.41;58.22;101003.06;5056291;28;20025;-72
2023/07/12 07:04:26;;;;;;;10.90;2.67;;;;;;;21.48;58.15;101009.09;5050102;28;20033;-72
2023/07/12 07:06:51;;;;;;;9.10;2.55;;;;;;;21.52;58.13;101017.78;5048631;28;20036;-73
2023/07/12 07:09:16;;;;;;;7.60;2.63;;;;;;;21.45;58.24;101017.38;5059031;28;20131;-72
2023/07/12 07:11:42;;;;;;;8.68;2.60;;;;;;;21.43;58.43;101019.72;5058166;28;20059;-74
2023/07/12 07:14:08;;;;;;;7.25;2.50;;;;;;;21.46;58.03;101016.25;5055835;28;20032;-72
2023/07/12 07:16:33;;;;;;;7.10;2.58;;;;;;;21.45;57.82;101009.75;5054820;28;20045;-73
2023/07/12 07:18:58;;;;;;;6.32;2.33;;;;;;;21.58;58.15;101013.66;5056418;28;20044;-72
2023/07/12 07:21:24;;;;;;;6.93;2.47;;;;;;;21.50;57.71;101018.09;5068339;28;20103;-72
2023/07/12 07:23:49;;;;;;;7.03;2.40;;;;;;;21.48;57.62;101019.56;5054696;28;20441;-72
2023/07/12 07:26:15;;;;;;;5.75;2.38;;;;;;;21.56;57.26;101025.28;5070049;28;20120;-72
2023/07/12 07:28:41;;;;;;;6.75;3.03;;;;;;;21.52;57.25;101029.06;5066753;28;20090;-72
2023/07/12 07:31:07;;;;;;;9.20;2.40;;;;;;;21.41;57.15;101030.47;5073425;28;20121;-72
2023/07/12 07:33:33;;;;;;;8.50;2.60;;;;;;;21.46;57.37;101036.84;5072592;28;20104;-72
2023/07/12 07:35:58;;;;;;;7.40;2.67;;;;;;;21.53;57.16;101042.84;5072708;28;20454;-72
2023/07/12 07:38:27;;;;;;;5.28;2.00;;;;;;;21.63;57.18;101038.94;5073573;28;20029;-72
2023/07/12 07:40:54;;;;;;;8.93;2.47;;;;;;;21.51;56.78;101050.00;5073172;28;20033;-72
2023/07/12 07:43:19;;;;;;;8.15;2.20;;;;;;;21.65;56.69;101045.09;5070643;28;20037;-72
2023/07/12 07:45:45;;;;;;;6.75;2.60;;;;;;;21.61;56.59;101041.25;5062362;28;20390;-72
2023/07/12 07:48:10;;;;;;;6.82;2.70;;;;;;;21.70;56.41;101044.97;5072785;28;20032;-72
2023/07/12 07:50:36;;;;;;;6.25;2.65;;;;;;;21.72;56.45;101036.16;5072260;28;20021;-72
2023/07/12 07:53:02;;;;;;;6.72;2.20;;;;;;;21.84;56.27;101047.69;5073022;28;20104;-72
2023/07/12 07:55:27;;;;;;;8.90;2.70;;;;;;;21.92;55.58;101054.53;5072804;28;20511;-72
2023/07/12 07:57:52;;;;;;;6.82;2.42;;;;;;;21.99;55.79;101054.91;5072941;28;20024;-72
2023/07/12 08:00:18;;;;;;;6.65;2.33;;;;;;;21.94;55.75;101057.91;5072986;28;20029;-73
2023/07/12 08:02:44;;;;;;;6.35;2.60;;;;;;;21.97;55.60;101060.06;5065810;28;20039;-72
2023/07/12 08:05:11;;;;;;;8.95;2.30;;;;;;;22.00;55.67;101056.56;5072939;28;20052;-73
2023/07/12 08:07:41;;;;;;;5.80;2.20;;;;;;;21.97;55.54;101055.25;5071501;28;20116;-72
2023/07/12 08:10:09;;;;;;;4.78;2.30;;;;;;;21.85;55.00;101057.00;5071942;28;20036;-64
2023/07/12 08:12:34;;;;;;;6.85;2.28;;;;;;;21.88;55.22;101065.66;5070440;28;20024;-64
2023/07/12 08:14:59;;;;;;;7.03;2.72;;;;;;;21.90;54.91;101065.34;5071426;28;20056;-68
2023/07/12 08:17:25;;;;;;;7.03;2.65;;;;;;;21.83;54.55;101082.75;5065961;28;20089;-69
2023/07/12 08:19:52;;;;;;;8.50;2.60;;;;;;;21.77;54.57;101067.94;5069622;28;20024;-68
2023/07/12 08:22:19;;;;;;;6.57;2.45;;;;;;;21.89;55.50;101073.00;5075737;28;20040;-69
2023/07/12 08:24:45;;;;;;;8.23;2.72;;;;;;;21.81;55.09;101073.75;5059348;28;20040;-66
2023/07/12 08:27:11;;;;;;;6.80;2.67;;;;;;;21.78;55.21;101080.91;5060074;28;20028;-67
2023/07/12 08:29:37;;;;;;;10.00;2.67;;;;;;;21.96;55.44;101075.34;5063751;28;20788;-69
2023/07/12 08:32:03;;;;;;;9.45;2.63;;;;;;;21.86;55.22;101082.13;5073118;28;20031;-69
2023/07/12 08:34:28;;;;;;;11.05;2.75;;;;;;;21.84;55.30;101077.94;5058241;28;20029;-67
2023/07/12 08:36:53;;;;;;;8.35;2.85;;;;;;;21.80;55.20;101077.75;5062955;28;20453;-67
2023/07/12 08:39:18;;;;;;;6.88;3.20;;;;;;;21.86;55.14;101072.81;5071655;28;20028;-68
2023/07/12 08:41:44;;;;;;;6.18;2.50;;;;;;;21.89;55.16;101075.84;5068142;28;20381;-67
2023/07/12 08:44:13;;;;;;;9.00;3.08;;;;;;;21.88;55.02;101079.78;5066846;28;20119;-67
2023/07/12 08:46:45;;;;;;;8.00;2.78;;;;;;;21.91;54.82;101092.44;5056639;28;20024;-67
2023/07/12 08:49:13;;;;;;;8.65;2.60;;;;;;;22.07;55.02;101093.69;5069837;28;20068;-67
2023/07/12 08:51:40;;;;;;;10.30;3.00;;;;;;;22.03;54.73;101093.50;5063779;28;20053;-67
2023/07/12 08:54:05;;;;;;;6.53;2.92;;;;;;;21.93;54.50;101087.28;5054067;28;20052;-67
2023/07/12 08:56:31;;;;;;;6.32;2.67;;;;;;;22.01;54.88;101089.34;5072491;28;20020;-72
2023/07/12 08:58:56;;;;;;;7.45;2.95;;;;;;;22.00;54.44;101096.16;5058673;28;20599;-74
2023/07/12 09:01:45;;;;;;;9.50;2.80;;;;;;;22.04;54.77;101097.16;5056269;28;20119;-75
2023/07/12 09:04:33;;;;;;;6.70;2.28;;;;;;;22.06;54.83;101098.50;5069887;28;20060;-71
2023/07/12 09:07:01;;;;;;;7.35;2.90;;;;;;;21.96;54.77;101092.31;5062570;28;20056;-70
2023/07/12 09:09:27;;;;;;;8.52;2.97;;;;;;;21.97;54.95;101102.47;5072132;28;20510;-73
2023/07/12 09:11:54;;;;;;;6.47;2.85;;;;;;;22.15;54.37;101101.41;5069538;28;20135;-73
2023/07/12 09:14:22;;;;;;;7.82;2.38;;;;;;;22.33;54.13;101095.84;5069019;28;20040;-73
2023/07/12 09:16:50;;;;;;;8.75;2.80;;;;;;;22.50;53.52;101104.38;5067301;28;20060;-76
2023/07/12 09:19:20;;;;;;;8.15;2.70;;;;;;;22.47;53.01;101097.38;5058574;28;20115;-71
2023/07/12 09:21:49;;;;;;;7.88;2.83;;;;;;;22.56;53.47;101094.59;5070014;28;20476;-72
2023/07/12 09:24:22;;;;;;;5.80;2.50;;;;;;;22.54;53.22;101091.25;5062289;28;20475;-70
2023/07/12 09:26:49;;;;;;;8.27;2.47;;;;;;;22.45;53.09;101082.75;5070442;28;20029;-70
2023/07/12 09:29:21;;;;;;;6.95;2.72;;;;;;;22.60;52.97;101092.78;5084066;28;20077;-70
2023/07/12 09:31:46;;;;;;;;;;;;;;;22.78;53.38;101097.28;5091433;28;20046;-71
2023/07/12 09:34:37;;;;;;;7.20;2.55;;;;;;;22.77;52.73;101086.31;5084752;28;19916;-70
2023/07/12 09:37:03;;;;;;;5.78;2.90;;;;;;;22.68;52.49;101088.31;5050388;28;20063;-71
2023/07/12 09:39:29;;;;;;;7.68;2.50;;;;;;;22.64;52.01;101093.78;5071194;28;20174;-70
2023/07/12 09:41:57;;;;;;;7.95;2.60;;;;;;;22.60;52.05;101089.94;5069995;28;20107;-71
2023/07/12 09:44:22;;;;;;;6.55;2.78;;;;;;;22.66;52.57;101088.63;5070929;28;20032;-70
2023/07/12 09:46:57;;;;;;;7.80;3.00;;;;;;;22.54;52.02;101089.25;5070913;28;20032;-70
2023/07/12 09:49:32;;;;;;;8.15;2.83;;;;;;;22.48;52.27;101087.75;5070093;28;20031;-70
2023/07/12 09:52:38;;;;;;;6.90;3.00;;;;;;;22.70;52.36;101081.13;5083174;28;20051;-71
2023/07/12 09:55:22;;;;;;;6.65;2.80;;;;;;;22.83;52.09;101067.16;5050751;28;20497;-70
2023/07/12 09:58:02;;;;;;;5.57;2.35;;;;;;;22.87;51.07;101071.00;5050584;28;20248;-71
2023/07/12 10:00:56;;;;;;;7.18;2.38;;;;;;;23.07;51.48;101061.91;5049069;28;20032;-71
2023/07/12 10:03:54;;;;;;;6.38;2.25;;;;;;;23.14;51.26;101065.06;5073549;28;20474;-71
2023/07/12 10:06:27;;;;;;;6.88;2.40;;;;;;;23.12;51.11;101061.75;5066762;28;20044;-71
2023/07/12 10:09:03;;;;;;;7.00;2.65;;;;;;;23.15;50.68;101054.59;5068468;28;20032;-71
2023/07/12 10:11:38;;;;;;;7.55;2.33;;;;;;;23.26;50.56;101051.09;5083166;28;20143;-71
2023/07/12 10:14:08;;;;;;;6.20;2.17;;;;;;;23.22;50.02;101052.06;5082784;28;20146;-71
2023/07/12 10:16:40;;;;;;;6.22;1.90;;;;;;;23.22;50.09;101066.22;5069647;28;20056;-71
2023/07/12 10:19:21;;;;;;;6.90;2.45;;;;;;;23.21;50.22;101056.91;5067105;28;20032;-71
2023/07/12 10:21:49;;;;;;;6.28;2.47;;;;;;;23.24;50.04;101055.41;5068665;28;20124;-70
2023/07/12 10:24:18;;;;;;;5.38;2.40;;;;;;;23.19;49.21;101056.41;5069971;28;20119;-72
2023/07/12 10:26:44;;;;;;;4.68;2.20;;;;;;;23.16;48.79;101064.75;5069653;28;20031;-71
2023/07/12 10:29:24;;;;;;;10.52;2.38;;;;;;;23.26;48.94;101061.56;5070542;28;20039;-71
2023/07/12 10:31:57;;;;;;;8.27;2.53;;;;;;;23.36;49.07;101066.06;5069777;28;20032;-71
2023/07/12 10:34:38;;;;;;;8.70;2.30;;;;;;;23.39;49.26;101063.41;5067035;28;20067;-71
2023/07/12 10:37:12;;;;;;;8.15;2.13;;;;;;;23.40;49.35;101067.91;5061615;28;20048;-71
2023/07/12 10:39:39;;;;;;;4.75;1.92;;;;;;;23.55;49.55;101077.88;5057497;28;20112;-71
2023/07/12 10:42:20;;;;;;;6.93;2.28;;;;;;;23.55;49.42;101060.88;5050285;28;20115;-70
2023/07/12 10:44:53;;;;;;;7.50;2.20;;;;;;;23.62;49.68;101069.72;5048664;28;20029;-70
2023/07/12 10:47:20;;;;;;;7.40;2.35;;;;;;;23.74;49.25;101064.22;5050408;28;20481;-70
2023/07/12 10:49:56;;;;;;;9.13;1.98;;;;;;;23.86;49.53;101063.50;5050013;28;20079;-71
2023/07/12 10:52:34;;;;;;;6.10;2.03;;;;;;;23.94;48.96;101065.47;5059511;28;20040;-71
2023/07/12 10:55:06;;;;;;;8.27;2.00;;;;;;;23.82;47.74;101065.34;5069882;28;20021;-71
2023/07/12 10:58:13;;;;;;;6.97;2.22;;;;;;;23.76;48.84;101073.19;5081661;28;20119;-71
2023/07/12 11:00:58;;;;;;;5.07;1.77;;;;;;;23.76;48.64;101075.19;5090103;28;20068;-71
2023/07/12 11:03:44;;;;;;;5.22;1.83;;;;;;;23.85;49.22;101086.50;5090237;28;20111;-71
2023/07/12 11:06:26;;;;;;;8.35;2.08;;;;;;;23.93;48.84;101074.31;5089868;28;20039;-70
2023/07/12 11:09:02;;;;;;;7.72;2.42;;;;;;;23.93;47.56;101079.97;5081255;28;20068;-71
2023/07/12 11:11:29;;;;;;;5.40;1.90;;;;;;;23.88;46.52;101071.66;5063850;28;20027;-71
2023/07/12 11:14:13;;;;;;;6.70;1.80;;;;;;;23.81;47.47;101065.69;5065228;28;20060;-71
2023/07/12 11:17:13;;;;;;;5.45;1.55;;;;;;;23.84;47.90;101070.69;5069771;28;20435;-70
2023/07/12 11:19:38;;;;;;;8.10;2.08;;;;;;;23.91;46.84;101071.81;5059455;28;20044;-71
2023/07/12 11:22:14;;;;;;;11.27;1.85;;;;;;;24.00;47.25;101068.94;5090240;28;20034;-72
2023/07/12 11:25:21;;;;;;;7.72;2.00;;;;;;;23.97;47.52;101061.13;5090163;28;20027;-71
2023/07/12 11:27:46;;;;;;;7.30;1.90;;;;;;;23.99;46.74;101059.63;5070281;28;20053;-71
2023/07/12 11:30:24;;;;;;;5.88;1.90;;;;;;;24.08;46.89;101058.75;5079951;28;20514;-71